createdAt,value
2023-03-02T00:04:40.636Z,3.75
2023-03-02T00:14:44.672Z,3.52
2023-03-02T00:24:47.297Z,3.46
2023-03-02T00:34:51.468Z,3.28
2023-03-02T00:44:54.237Z,3.42
2023-03-02T00:54:58.254Z,3.36
2023-03-02T01:05:00.970Z,3.47
2023-03-02T01:15:06.676Z,3.43
2023-03-02T01:25:09.508Z,3.60
2023-03-02T01:35:13.921Z,3.44
2023-03-02T01:45:53.677Z,3.43
2023-03-02T01:55:58.550Z,3.33
2023-03-02T02:06:10.072Z,3.15
2023-03-02T02:16:14.153Z,3.24
2023-03-02T02:26:25.767Z,3.27
2023-03-02T02:36:33.913Z,3.24
2023-03-02T02:46:38.231Z,3.23
2023-03-02T02:56:40.974Z,3.19
2023-03-02T03:06:53.111Z,3.01
2023-03-02T03:16:56.324Z,3.08
2023-03-02T03:27:01.124Z,3.05
2023-03-02T03:37:03.772Z,3.20
2023-03-02T03:47:07.830Z,3.18
2023-03-02T03:57:12.009Z,3.13
2023-03-02T04:07:16.363Z,3.18
2023-03-02T04:17:19.011Z,3.14
2023-03-02T04:27:23.000Z,3.14
2023-03-02T04:37:25.952Z,3.02
2023-03-02T04:47:29.926Z,2.84
2023-03-02T04:57:32.540Z,2.88
2023-03-02T05:07:36.537Z,2.90
2023-03-02T05:17:39.230Z,2.79
2023-03-02T05:27:43.210Z,2.66
2023-03-02T05:37:45.813Z,2.53
2023-03-02T05:47:49.909Z,2.51
2023-03-02T05:57:53.077Z,2.47
2023-03-02T06:07:57.051Z,2.35
2023-03-02T06:17:59.676Z,2.28
2023-03-02T06:28:03.742Z,2.05
2023-03-02T06:38:06.596Z,2.31
2023-03-02T06:48:10.640Z,2.38
2023-03-02T06:58:13.736Z,2.43
2023-03-02T07:08:17.649Z,2.39
2023-03-02T07:18:20.216Z,2.23
2023-03-02T07:28:24.259Z,2.19
2023-03-02T07:38:26.878Z,2.16
2023-03-02T07:48:30.887Z,2.54
2023-03-02T07:58:35.170Z,2.35
2023-03-02T08:08:39.590Z,2.29
2023-03-02T08:18:42.846Z,2.52
2023-03-02T08:28:47.749Z,2.90
2023-03-02T08:38:50.787Z,3.10
2023-03-02T08:48:54.822Z,3.03
2023-03-02T08:58:59.985Z,2.86
2023-03-02T09:09:05.840Z,3.04
2023-03-02T09:19:08.572Z,3.17
2023-03-02T09:29:13.271Z,3.23
2023-03-02T09:39:15.993Z,3.68
2023-03-02T09:49:31.112Z,4.05
2023-03-02T09:59:42.258Z,4.26
2023-03-02T10:09:46.404Z,4.26
2023-03-02T10:19:55.391Z,4.06
2023-03-02T10:30:02.816Z,4.03
2023-03-02T10:40:06.129Z,4.24
2023-03-02T10:50:23.380Z,4.39
2023-03-02T11:00:28.002Z,4.51
2023-03-02T11:10:34.336Z,4.66
2023-03-02T11:20:41.973Z,4.77
2023-03-02T11:30:50.729Z,5.37
2023-03-02T11:40:58.531Z,5.45
2023-03-02T11:51:05.942Z,5.48
2023-03-02T12:01:14.023Z,5.42
2023-03-02T12:11:35.224Z,5.54
2023-03-02T12:21:42.480Z,6.45
2023-03-02T12:31:49.089Z,7.29
2023-03-02T12:42:09.198Z,8.56
2023-03-02T12:52:28.571Z,9.61
2023-03-02T13:02:32.773Z,8.36
2023-03-02T13:12:38.006Z,9.52
2023-03-02T13:22:40.900Z,7.79
2023-03-02T13:32:44.898Z,8.94
2023-03-02T13:42:47.533Z,11.04
2023-03-02T13:52:52.779Z,11.19
2023-03-02T14:02:55.456Z,12.52
2023-03-02T14:13:05.092Z,12.05
2023-03-02T14:23:09.547Z,12.16
2023-03-02T14:33:17.850Z,14.34
2023-03-02T14:43:21.262Z,14.24
2023-03-02T14:53:30.512Z,13.81
2023-03-02T15:03:33.149Z,12.34
2023-03-02T15:13:37.166Z,12.07
2023-03-02T15:23:40.357Z,11.54
2023-03-02T15:33:45.394Z,11.09
2023-03-02T15:43:50.666Z,10.04
2023-03-02T15:53:54.757Z,9.36
2023-03-02T16:03:59.734Z,8.81
2023-03-02T16:14:03.790Z,8.16
2023-03-02T16:24:07.118Z,7.64
2023-03-02T16:34:12.403Z,6.71
2023-03-02T16:44:16.132Z,6.10
2023-03-02T16:54:20.146Z,5.53
2023-03-02T17:04:22.808Z,5.07
2023-03-02T17:14:27.453Z,4.69
2023-03-02T17:24:31.029Z,4.58
2023-03-02T17:34:35.039Z,4.86
2023-03-02T17:44:40.056Z,5.03
2023-03-02T17:54:44.489Z,4.98
2023-03-02T18:04:47.225Z,5.01
2023-03-02T18:14:51.181Z,4.91
2023-03-02T18:24:53.794Z,4.59
2023-03-02T18:34:57.737Z,4.43
2023-03-02T18:45:00.634Z,4.34
2023-03-02T18:55:04.890Z,4.20
2023-03-02T19:05:07.975Z,4.03
2023-03-02T19:15:13.309Z,4.09
2023-03-02T19:25:15.951Z,4.04
2023-03-02T19:35:20.378Z,4.22
2023-03-02T19:45:25.078Z,4.14
2023-03-02T19:55:29.158Z,4.01
2023-03-02T20:05:33.065Z,3.90
2023-03-02T20:15:39.784Z,4.00
2023-03-02T20:25:42.713Z,4.09
2023-03-02T20:35:47.729Z,4.13
2023-03-02T20:45:50.460Z,4.20
2023-03-02T20:55:54.815Z,4.22
2023-03-02T21:05:57.571Z,4.24
2023-03-02T21:16:02.584Z,4.17
2023-03-02T21:26:05.678Z,4.09
2023-03-02T21:36:15.630Z,4.14
2023-03-02T21:46:20.713Z,4.15
2023-03-02T21:56:25.921Z,3.94
2023-03-02T22:06:30.377Z,4.04
2023-03-02T22:16:38.082Z,4.03
2023-03-02T22:26:42.939Z,3.89
2023-03-02T22:36:46.943Z,3.95
2023-03-02T22:46:49.677Z,3.98
2023-03-02T22:56:56.851Z,3.89
2023-03-02T23:07:02.629Z,3.93
2023-03-02T23:17:14.309Z,3.84
2023-03-02T23:27:16.991Z,3.76
2023-03-02T23:37:21.016Z,3.80
2023-03-02T23:47:23.638Z,3.65
2023-03-02T23:57:27.879Z,3.59
